createdAt,value
2019-06-07T05:51:16.548Z,4368.00
2019-06-07T05:52:16.512Z,4400.00
2019-06-07T05:53:16.490Z,4432.00
2019-06-07T05:54:16.484Z,4524.00
2019-06-07T05:55:16.453Z,4660.00
2019-06-07T05:56:16.914Z,4768.00
2019-06-07T05:57:16.463Z,4948.00
2019-06-07T05:58:16.391Z,5000.00
2019-06-07T05:59:16.385Z,5252.00
2019-06-07T06:00:16.358Z,5412.00
2019-06-07T06:01:52.274Z,5500.00
2019-06-07T06:02:22.565Z,5504.00
2019-06-07T06:03:16.297Z,5560.00
2019-06-07T06:04:16.289Z,5732.00
2019-06-07T06:05:32.723Z,5988.00
2019-06-07T06:06:16.242Z,6052.00
2019-06-07T06:07:16.226Z,5976.00
2019-06-07T06:08:16.288Z,5904.00
2019-06-07T06:09:16.200Z,5808.00
2019-06-07T06:10:16.173Z,5824.00
2019-06-07T06:11:16.163Z,5496.00
2019-06-07T06:12:33.421Z,5900.00
2019-06-07T06:13:16.121Z,5980.00
2019-06-07T06:14:16.118Z,6168.00
2019-06-07T06:15:16.084Z,6216.00
2019-06-07T06:16:16.065Z,6164.00
2019-06-07T06:17:16.050Z,6388.00
2019-06-07T06:18:16.036Z,6736.00
2019-06-07T06:19:16.043Z,6728.00
2019-06-07T06:20:16.013Z,6588.00
2019-06-07T06:21:19.656Z,6608.00
2019-06-07T06:22:15.968Z,6636.00
2019-06-07T06:23:15.948Z,6584.00
2019-06-07T06:24:15.932Z,7012.00
2019-06-07T06:25:31.426Z,7032.00
2019-06-07T06:26:15.897Z,7092.00
2019-06-07T06:28:02.112Z,7168.00
2019-06-07T06:28:16.365Z,7264.00
2019-06-07T06:37:10.144Z,6796.00
2019-06-07T06:38:10.112Z,6852.00
2019-06-07T06:39:10.094Z,6680.00
2019-06-07T06:40:10.092Z,6660.00
2019-06-07T06:41:15.977Z,6544.00
2019-06-07T06:42:10.042Z,6436.00
2019-06-07T06:43:17.797Z,6164.00
2019-06-07T06:44:10.006Z,5740.00
2019-06-07T06:45:10.027Z,5504.00
2019-06-07T06:46:09.988Z,5504.00
2019-06-07T06:47:09.957Z,5304.00
2019-06-07T06:53:46.899Z,6064.00
2019-06-07T06:54:51.398Z,6224.00
2019-06-07T06:55:48.445Z,6324.00
2019-06-07T06:56:45.638Z,6348.00
2019-06-07T06:57:45.913Z,6676.00
2019-06-07T06:59:34.167Z,6664.00
2019-06-07T06:59:54.100Z,6844.00
2019-06-07T07:00:53.877Z,7036.00
2019-06-07T07:01:45.749Z,7132.00
2019-06-07T07:03:32.720Z,7104.00
2019-06-07T07:04:00.126Z,7156.00
2019-06-07T07:04:46.117Z,7164.00
2019-06-07T07:05:48.498Z,7216.00
2019-06-07T07:06:45.534Z,7520.00
2019-06-07T07:07:45.440Z,7436.00
2019-06-07T07:08:47.923Z,7228.00
2019-06-07T07:09:51.078Z,6948.00
2019-06-07T07:10:45.982Z,6448.00
2019-06-07T07:12:03.730Z,6436.00
2019-06-07T07:12:45.496Z,6460.00
2019-06-07T07:13:49.082Z,6352.00
2019-06-07T07:14:47.268Z,6344.00
2019-06-07T07:15:45.359Z,6068.00
2019-06-07T07:16:45.798Z,6180.00
2019-06-07T07:17:53.728Z,5888.00
2019-06-07T07:18:46.910Z,5940.00
2019-06-07T07:19:47.010Z,5852.00
2019-06-07T07:20:45.884Z,5932.00
2019-06-07T08:19:49.950Z,4152.00
2019-06-07T08:21:08.815Z,3900.00
2019-06-07T08:21:49.010Z,4164.00
2019-06-07T08:22:48.115Z,3964.00
2019-06-07T08:23:51.562Z,3948.00
2019-06-07T08:24:50.460Z,3984.00
2019-06-07T08:25:49.130Z,3980.00
2019-06-07T08:28:19.570Z,3904.00
2019-06-07T08:29:19.541Z,3924.00
2019-06-07T08:31:19.511Z,4124.00
2019-06-07T08:32:19.493Z,4232.00
2019-06-07T08:33:26.875Z,4056.00
2019-06-07T08:34:19.462Z,3968.00
2019-06-07T09:09:16.725Z,4280.00
2019-06-07T09:10:16.693Z,4292.00
2019-06-07T09:11:16.674Z,4308.00
2019-06-07T09:12:16.657Z,4308.00
2019-06-07T09:13:16.643Z,4320.00
2019-06-07T09:14:16.638Z,4324.00
2019-06-07T09:16:48.154Z,4308.00
2019-06-07T09:18:30.267Z,4340.00
2019-06-07T09:18:48.129Z,4368.00
2019-06-07T09:19:48.119Z,4408.00
2019-06-07T09:20:48.085Z,4416.00
2019-06-07T09:21:48.073Z,4432.00
2019-06-07T09:22:48.058Z,4464.00
2019-06-07T09:23:48.048Z,4488.00
2019-06-07T09:24:48.040Z,4532.00
2019-06-07T09:25:57.577Z,4568.00
2019-06-07T09:47:31.879Z,4972.00
2019-06-07T09:49:01.379Z,5140.00
2019-06-07T09:49:31.421Z,5216.00
2019-06-07T09:50:20.813Z,5272.00
2019-06-07T09:51:20.875Z,5288.00
2019-06-07T09:52:20.767Z,5408.00
2019-06-07T09:53:22.989Z,5472.00
2019-06-07T09:55:03.209Z,5528.00
2019-06-07T09:55:24.773Z,5564.00
2019-06-07T09:56:20.716Z,5644.00
2019-06-07T09:57:20.695Z,5688.00
2019-06-07T09:59:20.667Z,5712.00
2019-06-07T10:00:39.928Z,5548.00
2019-06-07T10:01:20.662Z,5436.00
2019-06-07T10:02:20.622Z,5412.00
2019-06-07T10:03:22.325Z,5148.00
2019-06-07T10:04:30.802Z,5128.00
2019-06-07T10:05:20.600Z,5264.00
2019-06-07T10:06:20.568Z,5500.00
2019-06-07T10:16:19.462Z,6068.00
2019-06-07T10:17:19.429Z,6100.00
2019-06-07T10:18:19.418Z,6004.00
2019-06-07T10:19:19.409Z,5760.00
2019-06-07T10:20:19.386Z,5696.00
2019-06-07T10:21:19.384Z,5680.00
2019-06-07T10:22:19.361Z,5652.00
2019-06-07T10:23:19.346Z,5540.00
2019-06-07T10:24:19.330Z,5464.00
2019-06-07T10:25:19.317Z,5548.00
2019-06-07T10:26:19.323Z,5616.00
2019-06-07T10:27:19.290Z,5644.00
2019-06-07T10:28:19.281Z,5620.00
2019-06-07T10:41:35.775Z,5728.00
2019-06-07T10:42:35.748Z,5748.00
2019-06-07T10:43:35.723Z,5764.00
2019-06-07T10:44:35.708Z,5768.00
2019-06-07T10:45:35.696Z,5752.00
2019-06-07T10:46:35.720Z,5828.00
2019-06-07T10:47:35.667Z,5848.00
2019-06-07T10:48:35.654Z,5848.00
2019-06-07T10:49:35.647Z,5868.00
2019-06-07T10:50:35.647Z,5900.00
2019-06-07T10:51:35.615Z,5916.00
2019-06-07T10:52:35.616Z,5960.00
2019-06-07T10:53:35.589Z,5964.00
2019-06-07T10:54:35.576Z,6008.00
2019-06-07T10:55:35.560Z,6048.00
2019-06-07T10:56:35.552Z,6064.00
2019-06-07T10:57:35.552Z,6088.00
2019-06-07T10:58:35.535Z,6100.00
2019-06-07T10:59:35.551Z,6128.00
2019-06-07T11:00:35.499Z,6156.00
2019-06-07T11:01:35.488Z,6232.00
2019-06-07T11:02:35.494Z,6300.00
2019-06-07T11:03:35.470Z,6368.00
2019-06-07T11:04:35.506Z,6372.00
2019-06-07T11:05:35.444Z,6452.00
2019-06-07T11:06:35.433Z,6580.00
2019-06-07T11:07:35.431Z,6764.00
2019-06-07T11:08:35.397Z,7024.00
2019-06-07T11:09:35.389Z,7348.00
2019-06-07T11:10:35.385Z,6808.00
2019-06-07T11:11:35.376Z,8068.00
2019-06-07T11:12:35.368Z,8608.00
2019-06-07T11:13:35.342Z,9024.00
2019-06-07T11:14:35.323Z,9344.00
2019-06-07T11:15:35.337Z,9608.00
2019-06-07T11:16:35.304Z,9924.00
2019-06-07T11:17:35.308Z,10020.00
2019-06-07T11:18:35.288Z,9832.00
2019-06-07T11:19:35.291Z,9772.00
2019-06-07T11:20:35.273Z,9984.00
2019-06-07T11:21:35.284Z,10336.00
2019-06-07T11:22:35.275Z,10592.00
2019-06-07T11:23:35.232Z,10616.00
2019-06-07T11:24:35.226Z,11288.00
2019-06-07T11:25:35.205Z,12000.00
2019-06-07T11:26:35.199Z,12620.00
2019-06-07T11:27:35.180Z,13584.00
2019-06-07T11:28:35.221Z,14480.00
2019-06-07T11:29:35.160Z,15864.00
2019-06-07T11:30:35.148Z,17376.00
2019-06-07T11:31:35.144Z,18208.00
2019-06-07T11:32:35.127Z,18752.00
2019-06-07T11:33:35.137Z,20192.00
2019-06-07T11:34:35.099Z,21280.00
2019-06-07T11:35:35.097Z,21344.00
2019-06-07T11:36:35.085Z,20512.00
2019-06-07T11:37:35.073Z,18624.00
2019-06-07T11:38:35.080Z,15616.00
2019-06-07T11:39:35.049Z,13220.00
2019-06-07T11:40:36.079Z,11628.00
2019-06-07T11:41:35.030Z,10652.00
2019-06-07T11:42:35.018Z,10736.00
2019-06-07T11:43:35.021Z,10888.00
2019-06-07T11:44:34.997Z,11400.00
2019-06-07T11:45:34.989Z,13444.00
2019-06-07T11:46:34.983Z,14580.00
2019-06-07T11:47:34.961Z,14584.00
2019-06-07T11:48:34.967Z,16020.00
2019-06-07T11:49:34.956Z,17064.00
2019-06-07T11:50:34.936Z,16264.00
2019-06-07T11:51:34.923Z,15276.00
2019-06-07T11:52:34.914Z,13064.00
2019-06-07T11:53:34.912Z,13472.00
2019-06-07T11:54:34.887Z,15272.00
2019-06-07T11:55:34.876Z,14328.00
2019-06-07T11:56:34.862Z,13900.00
2019-06-07T11:57:34.860Z,13028.00
2019-06-07T11:58:34.861Z,13756.00
2019-06-07T11:59:34.839Z,16364.00
2019-06-07T12:00:34.835Z,18656.00
2019-06-07T12:01:37.295Z,19648.00
2019-06-07T12:02:34.805Z,17696.00
2019-06-07T12:03:34.793Z,14820.00
2019-06-07T12:04:35.301Z,14184.00
2019-06-07T12:05:34.754Z,14092.00
2019-06-07T12:06:34.748Z,14636.00
2019-06-07T12:07:34.739Z,14812.00
2019-06-07T12:08:34.745Z,15016.00
2019-06-07T12:09:34.718Z,15164.00
2019-06-07T12:10:42.469Z,15944.00
2019-06-07T12:11:34.693Z,16928.00
2019-06-07T12:12:34.686Z,18720.00
2019-06-07T12:13:34.675Z,20640.00
2019-06-07T12:14:34.675Z,21664.00
2019-06-07T12:15:34.653Z,19808.00
2019-06-07T12:16:34.649Z,17600.00
2019-06-07T12:17:34.643Z,17140.00
2019-06-07T12:18:34.650Z,17600.00
2019-06-07T12:19:34.633Z,18848.00
2019-06-07T12:20:34.615Z,19680.00
2019-06-07T12:21:34.591Z,20896.00
2019-06-07T12:22:34.610Z,23040.00
2019-06-07T12:23:34.579Z,22592.00
2019-06-07T12:24:34.587Z,23520.00
2019-06-07T12:25:34.559Z,24864.00
2019-06-07T12:26:34.547Z,25888.00
2019-06-07T12:27:34.544Z,25728.00
2019-06-07T12:28:34.520Z,26400.00
2019-06-07T12:29:34.526Z,27200.00
2019-06-07T12:30:34.495Z,27648.00
2019-06-07T12:31:34.483Z,27584.00
2019-06-07T12:32:34.473Z,24000.00
2019-06-07T12:33:34.567Z,22688.00
2019-06-07T12:34:34.469Z,22528.00
2019-06-07T12:35:34.469Z,20416.00
2019-06-07T12:36:34.431Z,17824.00
2019-06-07T12:37:43.869Z,16484.00
2019-06-07T12:38:34.408Z,16552.00
2019-06-07T12:39:34.400Z,18048.00
2019-06-07T12:40:34.413Z,19104.00
2019-06-07T12:41:34.383Z,19392.00
2019-06-07T12:42:34.377Z,21184.00
2019-06-07T12:43:34.364Z,21152.00
2019-06-07T12:44:34.351Z,20704.00
2019-06-07T12:45:44.475Z,20096.00
2019-06-07T12:46:34.329Z,20640.00
2019-06-07T12:47:34.327Z,20704.00
2019-06-07T12:48:34.307Z,20896.00
2019-06-07T12:49:34.302Z,21056.00
2019-06-07T12:50:42.426Z,21568.00
2019-06-07T12:51:34.285Z,22176.00
2019-06-07T12:52:34.268Z,22720.00
2019-06-07T12:53:34.276Z,20928.00
2019-06-07T12:54:34.252Z,19648.00
2019-06-07T12:55:34.252Z,19648.00
2019-06-07T12:56:34.229Z,19520.00
2019-06-07T12:57:34.217Z,19200.00
2019-06-07T12:58:38.642Z,20384.00
2019-06-07T12:59:34.190Z,20928.00
2019-06-07T13:00:34.244Z,20256.00
2019-06-07T13:01:34.185Z,19264.00
2019-06-07T13:02:34.166Z,18176.00
2019-06-07T13:03:34.157Z,17600.00
2019-06-07T13:04:34.169Z,17728.00
2019-06-07T13:05:34.151Z,19648.00
2019-06-07T13:06:34.128Z,22880.00
2019-06-07T13:07:34.127Z,24512.00
2019-06-07T13:08:34.108Z,29536.00
2019-06-07T13:09:36.198Z,29408.00
2019-06-07T13:10:34.106Z,31552.00
2019-06-07T13:11:34.077Z,27904.00
2019-06-07T13:12:34.063Z,23296.00
2019-06-07T13:13:34.051Z,23616.00
2019-06-07T13:14:34.040Z,24096.00
2019-06-07T13:15:34.036Z,24896.00
2019-06-07T13:16:34.041Z,26176.00
2019-06-07T13:17:34.016Z,28000.00
2019-06-07T13:18:34.020Z,34656.00
2019-06-07T13:19:33.996Z,40192.00
2019-06-07T13:20:33.999Z,61056.00
2019-06-07T13:21:34.001Z,43424.00
2019-06-07T13:22:33.967Z,34368.00
2019-06-07T13:23:33.975Z,121184.00
2019-06-07T13:24:33.958Z,111424.00
2019-06-07T13:25:45.654Z,101088.00
2019-06-07T13:26:33.945Z,106208.00
2019-06-07T13:27:34.070Z,108960.00
2019-06-07T13:28:34.147Z,112576.00
2019-06-07T13:29:33.902Z,129248.00
2019-06-07T13:30:36.387Z,139584.00
2019-06-07T13:31:33.929Z,132288.00
2019-06-07T13:32:33.888Z,137088.00
2019-06-07T13:33:38.396Z,136864.00
2019-06-07T13:34:33.865Z,134976.00
2019-06-07T13:35:33.860Z,141600.00
2019-06-07T13:36:33.862Z,132064.00
2019-06-07T13:37:33.840Z,131296.00
2019-06-07T13:38:33.829Z,139488.00
2019-06-07T13:39:33.842Z,129056.00
2019-06-07T13:40:33.818Z,137632.00
2019-06-07T13:41:42.639Z,150944.00
2019-06-07T13:42:33.833Z,146688.00
2019-06-07T13:43:33.789Z,135648.00
2019-06-07T13:44:33.785Z,145536.00
2019-06-07T13:45:33.788Z,150048.00
2019-06-07T13:46:33.780Z,143936.00
2019-06-07T13:47:33.788Z,142208.00
2019-06-07T13:48:33.760Z,140960.00
2019-06-07T13:49:33.755Z,138208.00
2019-06-07T13:50:33.763Z,143744.00
2019-06-07T13:51:33.763Z,148896.00
2019-06-07T13:52:33.758Z,144512.00
2019-06-07T13:53:33.737Z,132928.00
2019-06-07T13:54:33.732Z,119904.00
2019-06-07T13:55:33.714Z,118304.00
2019-06-07T13:56:33.711Z,128672.00
2019-06-07T13:57:33.725Z,122720.00
2019-06-07T13:58:33.719Z,125760.00
2019-06-07T13:59:33.716Z,126112.00
2019-06-07T14:00:33.689Z,119328.00
2019-06-07T14:01:33.686Z,121504.00
2019-06-07T14:02:33.700Z,132224.00
2019-06-07T14:03:34.137Z,129504.00
2019-06-07T14:04:33.664Z,119104.00
2019-06-07T14:05:33.662Z,111136.00
2019-06-07T14:06:33.662Z,117568.00
2019-06-07T14:07:33.649Z,120128.00
2019-06-07T14:08:33.658Z,115104.00
2019-06-07T14:09:33.644Z,122272.00
2019-06-07T14:10:33.639Z,121600.00
2019-06-07T14:11:49.485Z,128032.00
2019-06-07T14:12:33.625Z,124160.00
2019-06-07T14:13:33.672Z,113312.00
2019-06-07T14:14:33.618Z,121088.00
2019-06-07T14:15:34.504Z,120608.00
2019-06-07T14:16:33.611Z,113984.00
2019-06-07T14:17:33.642Z,116608.00
2019-06-07T14:18:33.617Z,115520.00
2019-06-07T14:19:33.592Z,117344.00
2019-06-07T14:20:34.706Z,113312.00
2019-06-07T14:21:33.586Z,120768.00
2019-06-07T14:22:33.578Z,122560.00
2019-06-07T14:23:47.453Z,125568.00
2019-06-07T14:24:33.581Z,120832.00
2019-06-07T14:25:33.561Z,120864.00
2019-06-07T14:26:33.564Z,123680.00
2019-06-07T14:27:33.567Z,116928.00
2019-06-07T14:28:34.314Z,97408.00
2019-06-07T14:29:33.549Z,119040.00
2019-06-07T14:30:33.548Z,25824.00
2019-06-07T14:31:33.544Z,21984.00
2019-06-07T14:32:33.540Z,18336.00
2019-06-07T14:33:33.896Z,18112.00
2019-06-07T14:34:33.556Z,14840.00
2019-06-07T14:35:33.768Z,12280.00
2019-06-07T14:36:33.584Z,10784.00
2019-06-07T14:37:33.521Z,10116.00
2019-06-07T14:38:36.960Z,9680.00
2019-06-07T14:39:33.626Z,9640.00
2019-06-07T14:40:34.070Z,9020.00
2019-06-07T14:41:33.708Z,9324.00
2019-06-07T14:42:33.523Z,9200.00
2019-06-07T14:43:34.122Z,9444.00
2019-06-07T14:44:33.916Z,11076.00
2019-06-07T14:45:34.338Z,11728.00
2019-06-07T14:46:34.376Z,11260.00
2019-06-07T14:47:34.146Z,11216.00
2019-06-07T14:48:34.577Z,10136.00
2019-06-07T14:49:34.719Z,8284.00
2019-06-07T14:50:34.485Z,6312.00
2019-06-07T14:51:35.166Z,5576.00
2019-06-07T14:52:35.144Z,5036.00
2019-06-07T14:53:33.423Z,4476.00
2019-06-07T14:54:36.102Z,5020.00
2019-06-07T14:55:33.406Z,5528.00
2019-06-07T14:56:33.426Z,6664.00
2019-06-07T14:57:33.807Z,8104.00
2019-06-07T14:58:38.090Z,8956.00
2019-06-07T14:59:34.899Z,10684.00
2019-06-07T15:00:34.550Z,12396.00
2019-06-07T15:01:33.585Z,11532.00
2019-06-07T15:02:36.450Z,9636.00
2019-06-07T15:03:34.730Z,8368.00
2019-06-07T15:04:34.674Z,7684.00
2019-06-07T15:05:35.559Z,7868.00
2019-06-07T15:06:34.870Z,8820.00
2019-06-07T15:07:34.760Z,11120.00
2019-06-07T15:08:34.791Z,15672.00
2019-06-07T15:09:33.275Z,21696.00
2019-06-07T15:10:33.740Z,27200.00
2019-06-07T15:11:33.281Z,23136.00
2019-06-07T15:12:33.330Z,17728.00
2019-06-07T15:13:33.620Z,16720.00
2019-06-07T15:14:33.473Z,19776.00
2019-06-07T15:15:34.510Z,14828.00
2019-06-07T15:16:33.849Z,12720.00
2019-06-07T15:17:33.724Z,10868.00
2019-06-07T15:18:33.892Z,8288.00
2019-06-07T15:19:35.788Z,6332.00
2019-06-07T15:20:34.068Z,5908.00
2019-06-07T15:21:33.169Z,5808.00
2019-06-07T15:22:34.094Z,5584.00
2019-06-07T15:23:33.460Z,5404.00
2019-06-07T15:24:37.021Z,4912.00
2019-06-07T15:25:33.277Z,4448.00
2019-06-07T15:26:34.470Z,4308.00
2019-06-07T15:27:33.304Z,4380.00
2019-06-07T15:28:34.162Z,4100.00
2019-06-07T15:29:33.775Z,4288.00
2019-06-07T15:30:33.678Z,4016.00
2019-06-07T15:31:34.670Z,4696.00
2019-06-07T15:32:35.176Z,5696.00
2019-06-07T15:33:34.359Z,7152.00
2019-06-07T15:34:34.322Z,9036.00
2019-06-07T15:35:35.473Z,11384.00
2019-06-07T15:36:34.345Z,13940.00
2019-06-07T15:37:32.994Z,15116.00
2019-06-07T15:38:33.193Z,16920.00
2019-06-07T15:39:32.962Z,76928.00
2019-06-07T15:40:33.208Z,83296.00
2019-06-07T15:41:33.143Z,53632.00
2019-06-07T15:42:46.131Z,72800.00
2019-06-07T15:43:33.140Z,84448.00
2019-06-07T15:44:33.328Z,79328.00
2019-06-07T15:45:33.650Z,77536.00
2019-06-07T15:46:33.684Z,77824.00
2019-06-07T15:47:33.805Z,75520.00
2019-06-07T15:48:33.974Z,72640.00
2019-06-07T15:49:34.079Z,71136.00
2019-06-07T15:50:34.176Z,51872.00
2019-06-07T15:51:34.286Z,15976.00
2019-06-07T15:52:33.445Z,11048.00
2019-06-07T15:53:37.300Z,9024.00
2019-06-07T15:54:32.821Z,9436.00
2019-06-07T15:55:37.065Z,10088.00
2019-06-07T15:56:32.825Z,10036.00
2019-06-07T15:57:33.291Z,10032.00
2019-06-07T15:58:33.140Z,9504.00
2019-06-07T15:59:33.229Z,7796.00
2019-06-07T16:00:33.351Z,7200.00
2019-06-07T16:01:33.487Z,6420.00
2019-06-07T16:02:33.509Z,7608.00
2019-06-07T16:03:33.750Z,8520.00
2019-06-07T16:04:33.467Z,7844.00
2019-06-07T16:05:34.092Z,6956.00
2019-06-07T16:06:34.254Z,5744.00
2019-06-07T16:07:34.059Z,4716.00
2019-06-07T16:08:34.224Z,4232.00
2019-06-07T16:09:32.695Z,3936.00
2019-06-07T16:10:32.721Z,4332.00
2019-06-07T16:11:32.894Z,5956.00
2019-06-07T16:12:32.667Z,9112.00
2019-06-07T16:13:32.654Z,12456.00
2019-06-07T16:14:33.112Z,16036.00
2019-06-07T16:15:33.059Z,19168.00
2019-06-07T16:16:32.789Z,19456.00
2019-06-07T16:17:32.968Z,20544.00
2019-06-07T16:18:33.190Z,21696.00
2019-06-07T16:19:34.300Z,64160.00
2019-06-07T16:20:33.263Z,56768.00
2019-06-07T16:21:33.249Z,55136.00
2019-06-07T16:22:33.506Z,55520.00
2019-06-07T16:23:33.660Z,29600.00
2019-06-07T16:24:33.652Z,45600.00
2019-06-07T16:25:33.866Z,45504.00
2019-06-07T16:26:33.935Z,51648.00
2019-06-07T16:27:32.557Z,23904.00
2019-06-07T16:28:32.533Z,15320.00
2019-06-07T16:29:32.514Z,37568.00
2019-06-07T16:30:32.508Z,36928.00
2019-06-07T16:31:32.502Z,49024.00
2019-06-07T16:32:32.493Z,47488.00
2019-06-07T16:33:32.471Z,50272.00
2019-06-07T16:34:32.464Z,48416.00
2019-06-07T16:35:32.445Z,47744.00
2019-06-07T16:36:32.447Z,47552.00
2019-06-07T16:37:32.459Z,46272.00
2019-06-07T16:38:32.453Z,45440.00
2019-06-07T16:39:32.431Z,45216.00
2019-06-07T16:40:32.427Z,44288.00
2019-06-07T16:41:32.446Z,44864.00
2019-06-07T16:42:32.455Z,42528.00
2019-06-07T16:43:32.451Z,32640.00
2019-06-07T16:44:32.390Z,40480.00
2019-06-07T16:45:32.384Z,42464.00
2019-06-07T16:46:40.643Z,41760.00
2019-06-07T16:47:32.369Z,40800.00
2019-06-07T16:48:32.345Z,39552.00
2019-06-07T16:49:32.337Z,36096.00
2019-06-07T16:50:32.330Z,32960.00
2019-06-07T16:51:32.317Z,29024.00
2019-06-07T16:52:32.341Z,25696.00
2019-06-07T16:53:32.306Z,20480.00
2019-06-07T16:54:35.451Z,17376.00
2019-06-07T16:55:32.294Z,15428.00
2019-06-07T16:56:32.287Z,18560.00
2019-06-07T16:57:32.290Z,12980.00
2019-06-07T16:58:32.275Z,11784.00
2019-06-07T16:59:32.263Z,10656.00
2019-06-07T17:00:32.256Z,7224.00
2019-06-07T17:01:32.244Z,7544.00
2019-06-07T17:02:32.250Z,7436.00
2019-06-07T17:03:32.225Z,7036.00
2019-06-07T17:04:32.215Z,7660.00
2019-06-07T17:05:32.207Z,7768.00
2019-06-07T17:06:32.194Z,8936.00
2019-06-07T17:07:32.183Z,11096.00
2019-06-07T17:08:32.185Z,22624.00
2019-06-07T17:09:32.161Z,23008.00
2019-06-07T17:10:32.153Z,25600.00
2019-06-07T17:11:32.138Z,32576.00
2019-06-07T17:12:32.150Z,36512.00
2019-06-07T17:13:33.900Z,36768.00
2019-06-07T17:14:32.105Z,35264.00
2019-06-07T17:15:32.093Z,27776.00
2019-06-07T17:16:32.082Z,32672.00
2019-06-07T17:17:32.071Z,28768.00
2019-06-07T17:18:32.074Z,20256.00
2019-06-07T17:19:32.051Z,12948.00
2019-06-07T17:20:32.041Z,12456.00
2019-06-07T17:21:32.031Z,15488.00
2019-06-07T17:22:32.019Z,20928.00
2019-06-07T17:23:32.024Z,11600.00
2019-06-07T17:24:32.000Z,11272.00
2019-06-07T17:25:31.990Z,11624.00
2019-06-07T17:26:31.979Z,12892.00
2019-06-07T17:27:31.964Z,21920.00
2019-06-07T17:28:31.991Z,23776.00
2019-06-07T17:29:31.945Z,18272.00
2019-06-07T17:30:31.937Z,16576.00
2019-06-07T17:31:31.925Z,13108.00
2019-06-07T17:32:44.705Z,11600.00
2019-06-07T17:33:31.903Z,10260.00
2019-06-07T17:34:31.911Z,8044.00
2019-06-07T17:35:31.877Z,6628.00
2019-06-07T17:36:31.867Z,5760.00
2019-06-07T17:37:31.856Z,5296.00
2019-06-07T17:38:31.847Z,5056.00
2019-06-07T17:39:31.847Z,5060.00
2019-06-07T17:40:31.824Z,5088.00
2019-06-07T17:41:41.879Z,5224.00
2019-06-07T17:42:31.800Z,5452.00
2019-06-07T17:43:31.785Z,5788.00
2019-06-07T17:44:31.785Z,4820.00
2019-06-07T17:45:31.759Z,4648.00
2019-06-07T17:46:31.747Z,4488.00
2019-06-07T17:47:31.735Z,4864.00
2019-06-07T17:48:31.721Z,4820.00
2019-06-07T17:49:31.721Z,4284.00
2019-06-07T17:50:31.699Z,3648.00
2019-06-07T17:51:31.683Z,3360.00
2019-06-07T17:52:31.680Z,2824.00
2019-06-07T17:53:31.659Z,2724.00
2019-06-07T17:54:31.666Z,2652.00
2019-06-07T17:55:31.632Z,3380.00
2019-06-07T17:56:31.617Z,4116.00
2019-06-07T17:57:31.602Z,4424.00
2019-06-07T17:58:31.593Z,3760.00
2019-06-07T17:59:31.590Z,3700.00
2019-06-07T18:00:33.420Z,2908.00
2019-06-07T18:01:40.913Z,2604.00
2019-06-07T18:02:31.533Z,2492.00
2019-06-07T18:03:31.523Z,2732.00
2019-06-07T18:04:31.558Z,2704.00
2019-06-07T18:05:31.492Z,2908.00
2019-06-07T18:06:31.481Z,2420.00
2019-06-07T18:07:31.466Z,2116.00
2019-06-07T18:08:31.451Z,1664.00
2019-06-07T18:09:31.434Z,1520.00
2019-06-07T18:10:31.439Z,1672.00
2019-06-07T18:11:31.409Z,1692.00
2019-06-07T18:12:31.430Z,1516.00
2019-06-07T18:13:31.379Z,1460.00
2019-06-07T18:14:31.365Z,1404.00
2019-06-07T18:15:31.363Z,1280.00
2019-06-07T18:16:31.333Z,1324.00
2019-06-07T18:17:34.433Z,1340.00
2019-06-07T18:18:31.308Z,1292.00
2019-06-07T18:19:31.289Z,1268.00
2019-06-07T18:20:31.290Z,1208.00
2019-06-07T18:21:31.260Z,1144.00
2019-06-07T18:22:31.246Z,976.00
2019-06-07T18:23:31.291Z,1092.00
2019-06-07T18:24:31.217Z,1268.00
2019-06-07T18:25:31.215Z,1400.00
2019-06-07T18:26:31.212Z,1568.00
2019-06-07T18:27:31.189Z,1776.00
2019-06-07T18:28:31.156Z,1648.00
2019-06-07T18:29:31.141Z,1768.00
2019-06-07T18:30:31.141Z,1840.00
2019-06-07T18:31:31.111Z,1692.00
2019-06-07T18:32:31.097Z,1816.00
2019-06-07T18:33:31.083Z,1696.00
2019-06-07T18:34:31.066Z,1408.00
2019-06-07T18:35:31.063Z,1212.00
2019-06-07T18:36:31.035Z,1268.00
2019-06-07T18:37:31.021Z,1440.00
2019-06-07T18:38:31.006Z,1484.00
2019-06-07T18:39:30.989Z,1544.00
2019-06-07T18:40:30.994Z,1436.00
2019-06-07T18:41:30.978Z,1312.00
2019-06-07T18:42:30.946Z,1092.00
2019-06-07T18:43:30.949Z,1016.00
2019-06-07T18:48:10.926Z,1360.00
2019-06-07T18:49:02.822Z,1308.00
2019-06-07T18:50:02.806Z,1240.00
2019-06-07T18:51:02.790Z,1244.00
2019-06-07T18:52:02.777Z,1192.00
2019-06-07T18:53:02.759Z,1140.00
2019-06-07T18:54:02.758Z,1156.00
2019-06-07T18:55:02.732Z,1124.00
2019-06-07T18:56:02.764Z,1032.00
2019-06-07T18:57:02.698Z,892.00
2019-06-07T18:58:02.690Z,772.00
2019-06-07T18:59:02.691Z,820.00
2019-06-07T19:00:02.653Z,844.00
2019-06-07T19:01:02.634Z,824.00
2019-06-07T19:02:02.622Z,812.00
2019-06-07T19:03:02.606Z,776.00
2019-06-07T19:04:02.603Z,784.00
2019-06-07T19:05:02.576Z,748.00
2019-06-07T19:06:02.619Z,756.00
2019-06-07T19:07:02.545Z,820.00
2019-06-07T19:08:02.527Z,888.00
2019-06-07T19:09:02.536Z,952.00
2019-06-07T19:10:02.498Z,996.00
2019-06-07T19:11:02.482Z,1004.00
2019-06-07T19:12:02.472Z,972.00
2019-06-07T19:13:02.450Z,952.00
2019-06-07T19:14:02.480Z,920.00
2019-06-07T19:15:02.424Z,880.00
2019-06-07T19:16:02.405Z,816.00
2019-06-07T19:17:02.389Z,764.00
2019-06-07T19:18:02.374Z,716.00
2019-06-07T19:19:02.375Z,684.00
2019-06-07T19:20:02.344Z,644.00
2019-06-07T19:21:02.331Z,616.00
2019-06-07T19:22:02.312Z,592.00
2019-06-07T19:23:02.294Z,560.00
2019-06-07T19:24:02.281Z,536.00
2019-06-07T19:25:02.285Z,492.00
2019-06-07T19:26:02.250Z,464.00
2019-06-07T19:27:02.236Z,436.00
2019-06-07T19:28:02.242Z,404.00
2019-06-07T19:29:02.204Z,380.00
2019-06-07T19:30:02.199Z,352.00
2019-06-07T19:31:02.171Z,328.00
2019-06-07T19:32:02.159Z,304.00
2019-06-07T19:33:02.139Z,276.00
2019-06-07T19:34:02.124Z,252.00
2019-06-07T19:35:02.134Z,220.00
2019-06-07T19:36:02.095Z,196.00
2019-06-07T19:37:02.177Z,168.00
2019-06-07T19:38:02.195Z,152.00
2019-06-07T19:39:02.145Z,136.00
2019-06-07T19:40:02.840Z,120.00
2019-06-07T19:41:16.522Z,108.00
2019-06-07T19:42:02.265Z,104.00
2019-06-07T19:43:03.940Z,96.00
2019-06-07T19:44:02.440Z,88.00
2019-06-07T19:45:28.503Z,80.00
2019-06-07T19:46:02.482Z,72.00
2019-06-07T19:47:02.708Z,64.00
2019-06-07T19:48:02.842Z,48.00
2019-06-07T19:49:03.101Z,44.00
2019-06-07T19:50:03.092Z,40.00
2019-06-07T19:51:03.081Z,40.00
2019-06-07T19:52:03.127Z,40.00
2019-06-07T19:53:03.654Z,40.00
2019-06-07T19:54:01.881Z,36.00
2019-06-07T19:55:06.196Z,36.00
2019-06-07T19:56:01.786Z,32.00
2019-06-07T19:57:01.775Z,32.00
2019-06-07T19:58:01.860Z,28.00
2019-06-07T19:59:01.847Z,24.00
2019-06-07T20:00:02.694Z,20.00
2019-06-07T20:01:02.111Z,16.00
2019-06-07T20:02:02.068Z,16.00
2019-06-07T20:03:02.261Z,12.00
2019-06-07T20:04:02.402Z,16.00
2019-06-07T20:05:05.065Z,8.00
2019-06-07T20:06:02.362Z,8.00
2019-06-07T20:07:03.973Z,8.00
2019-06-07T20:08:02.799Z,4.00
2019-06-07T20:09:02.818Z,4.00
2019-06-07T20:10:02.927Z,4.00
2019-06-07T20:11:02.638Z,4.00
2019-06-07T20:12:02.765Z,4.00
2019-06-07T20:13:02.875Z,4.00
2019-06-07T20:14:01.482Z,0.00
2019-06-07T20:15:24.535Z,4.00
2019-06-07T20:16:01.449Z,4.00
2019-06-07T20:17:01.490Z,4.00
2019-06-07T20:18:01.417Z,4.00
2019-06-07T20:19:03.552Z,0.00
2019-06-07T20:20:02.694Z,0.00
2019-06-07T20:21:02.607Z,0.00
2019-06-07T20:22:01.356Z,0.00
2019-06-07T20:23:01.338Z,0.00
2019-06-07T20:24:17.615Z,0.00
2019-06-07T20:25:01.341Z,0.00
2019-06-07T20:26:02.356Z,0.00